Time;durP1;ratioP1;P1;durP2;ratioP2;P2;SDS_P1;SDS_P2;PMS_P1;PMS_P2;Temp;Humidity;BMP_temperature;BMP_pressure;BME280_temperature;BME280_humidity;BME280_pressure;Samples;Min_cycle;Max_cycle;Signal;HPM_P1;HPM_P2
2022/07/19 00:00:09;;;;;;;;;8.50;7.50;;;;;32.93;20.38;100812.72;5074715;28;45835;-83
2022/07/19 00:02:35;;;;;;;;;6.75;6.75;;;;;32.98;20.90;100823.69;5074518;28;45938;-82
2022/07/19 00:05:00;;;;;;;;;7.75;7.25;;;;;32.92;20.42;100808.38;5074366;28;45695;-83
2022/07/19 00:07:26;;;;;;;;;8.00;7.00;;;;;32.86;20.72;100793.91;5074776;28;45670;-84
2022/07/19 00:09:51;;;;;;;;;6.50;6.50;;;;;32.91;21.04;100814.88;5074944;28;45622;-82
2022/07/19 00:12:17;;;;;;;;;7.50;6.75;;;;;32.81;20.89;100801.16;5074851;28;45564;-84
2022/07/19 00:18:04;;;;;;;;;5.00;5.00;;;;;32.81;20.69;100810.13;5074771;28;45747;-84
2022/07/19 00:20:29;;;;;;;;;9.00;6.50;;;;;32.77;20.65;100810.88;5075037;28;45557;-84
2022/07/19 00:22:55;;;;;;;;;7.00;6.50;;;;;32.72;20.64;100816.22;5074422;28;45562;-85
2022/07/19 00:25:20;;;;;;;;;5.75;5.75;;;;;32.68;21.00;100810.47;5074223;28;46625;-84
2022/07/19 00:27:46;;;;;;;;;5.50;5.25;;;;;32.64;21.08;100803.88;5056154;28;47053;-84
2022/07/19 00:33:33;;;;;;;;;6.75;6.00;;;;;32.59;20.18;100800.28;5074177;28;45631;-84
2022/07/19 00:35:58;;;;;;;;;7.00;7.00;;;;;32.55;20.82;100799.16;5074109;28;48484;-84
2022/07/19 00:38:24;;;;;;;;;6.00;5.50;;;;;32.54;21.21;100803.75;5076288;28;45885;-86
2022/07/19 00:40:49;;;;;;;;;6.00;6.00;;;;;32.49;20.80;100795.53;5075648;28;45689;-84
2022/07/19 00:43:15;;;;;;;;;7.50;6.75;;;;;32.36;21.08;100790.44;5075533;28;45600;-86
2022/07/19 00:45:40;;;;;;;;;5.25;5.25;;;;;32.39;21.29;100800.81;5055879;28;48513;-83
2022/07/19 00:48:06;;;;;;;;;7.00;6.00;;;;;32.37;21.01;100798.34;5074574;28;45667;-85
2022/07/19 00:50:32;;;;;;;;;8.00;6.50;;;;;32.33;21.12;100799.09;5074010;28;45516;-83
2022/07/19 00:53:00;;;;;;;;;6.50;5.75;;;;;32.21;21.20;100780.19;5074160;28;45658;-85
2022/07/19 00:55:29;;;;;;;;;5.75;5.50;;;;;32.25;21.02;100791.34;5073705;28;45990;-84
2022/07/19 00:57:58;;;;;;;;;8.25;7.25;;;;;32.18;20.87;100788.78;5058240;28;47297;-85
2022/07/19 01:03:47;;;;;;;;;5.00;4.00;;;;;32.08;21.42;100792.13;5077425;28;45626;-85
2022/07/19 01:06:12;;;;;;;;;5.00;5.00;;;;;32.01;21.54;100786.03;5077149;28;45681;-84
2022/07/19 01:08:38;;;;;;;;;6.50;5.50;;;;;32.01;21.67;100794.16;5077373;28;45575;-83
2022/07/19 01:11:05;;;;;;;;;5.75;5.00;;;;;32.00;20.96;100789.03;5077210;28;45690;-85
2022/07/19 01:13:31;;;;;;;;;6.75;5.75;;;;;31.96;21.61;100785.97;5077276;28;45728;-81
2022/07/19 01:15:56;;;;;;;;;5.00;4.50;;;;;31.94;21.57;100782.69;5076765;28;46807;-81
2022/07/19 01:18:22;;;;;;;;;5.75;5.75;;;;;31.86;21.53;100768.69;5077164;28;45606;-83
2022/07/19 01:20:47;;;;;;;;;4.75;4.75;;;;;31.87;21.53;100773.06;5077037;28;45695;-85
2022/07/19 01:23:13;;;;;;;;;5.50;5.00;;;;;31.84;21.84;100766.25;5077115;28;45708;-84
2022/07/19 01:25:39;;;;;;;;;6.75;5.50;;;;;31.84;21.69;100776.28;5076787;28;45586;-83
2022/07/19 01:28:07;;;;;;;;;4.75;4.25;;;;;31.80;21.60;100773.19;5057771;28;47153;-84
2022/07/19 01:33:53;;;;;;;;;6.50;5.75;;;;;31.82;21.91;100784.63;5076625;28;45581;-83
2022/07/19 01:36:19;;;;;;;;;7.75;5.75;;;;;31.76;22.00;100777.47;5076476;28;45504;-83
2022/07/19 01:38:44;;;;;;;;;7.00;5.50;;;;;31.69;21.69;100765.97;5076551;28;45675;-82
2022/07/19 01:41:09;;;;;;;;;5.50;4.50;;;;;31.64;22.05;100769.41;5076828;28;45726;-83
2022/07/19 01:43:35;;;;;;;;;7.25;7.25;;;;;31.66;21.93;100772.72;5076941;28;45502;-82
2022/07/19 01:49:22;;;;;;;;;7.00;6.00;;;;;31.64;21.97;100777.53;5076359;28;45844;-84
2022/07/19 01:51:48;;;;;;;;;5.00;5.00;;;;;31.59;21.69;100763.06;5057625;28;45691;-85
2022/07/19 01:54:13;;;;;;;;;6.00;6.00;;;;;31.59;22.16;100772.03;5076567;28;45674;-84
2022/07/19 01:56:43;;;;;;;;;6.25;5.75;;;;;31.46;21.95;100752.53;5074667;28;47499;-84
2022/07/19 01:59:08;;;;;;;;;6.50;6.50;;;;;31.50;22.03;100765.34;5076410;28;45839;-83
2022/07/19 02:01:33;;;;;;;;;7.75;6.75;;;;;31.50;22.00;100770.75;5057895;28;45621;-82
2022/07/19 02:03:59;;;;;;;;;6.25;6.00;;;;;31.45;21.88;100762.53;5061674;28;45574;-93
2022/07/19 02:06:24;;;;;;;;;5.50;5.25;;;;;31.36;21.98;100744.22;5082059;28;45578;-91
2022/07/19 02:08:49;;;;;;;;;7.25;6.75;;;;;31.48;22.44;100761.22;5065594;28;47735;-87
2022/07/19 02:13:59;;;;;;;;;6.00;6.00;;;;;31.43;22.79;100761.94;5090233;28;45481;-87
2022/07/19 02:16:24;;;;;;;;;7.50;7.00;;;;;31.45;22.74;100764.41;5083711;28;45520;-87
2022/07/19 02:18:50;;;;;;;;;7.00;6.00;;;;;31.41;22.33;100758.66;5078957;28;45424;-87
2022/07/19 02:21:15;;;;;;;;;7.50;7.25;;;;;31.39;22.74;100755.38;5077186;28;46112;-84
2022/07/19 02:23:40;;;;;;;;;7.00;6.75;;;;;31.38;22.93;100759.13;5076801;28;45578;-85
2022/07/19 02:26:06;;;;;;;;;5.00;5.00;;;;;31.33;22.69;100748.22;5059969;28;48426;-91
2022/07/19 02:28:31;;;;;;;;;5.25;5.25;;;;;31.31;23.05;100747.63;5078242;28;45682;-90
2022/07/19 02:34:18;;;;;;;;;6.00;5.00;;;;;31.19;23.04;100736.03;5079096;28;45581;-87
2022/07/19 02:36:44;;;;;;;;;6.50;5.25;;;;;31.18;22.99;100737.91;5079265;28;46614;-87
2022/07/19 02:39:09;;;;;;;;;6.00;6.00;;;;;31.20;23.30;100748.50;5078170;28;46083;-91
2022/07/19 02:41:35;;;;;;;;;4.50;4.50;;;;;31.09;23.42;100723.13;5060566;28;45787;-89
2022/07/19 02:44:00;;;;;;;;;5.25;4.50;;;;;31.10;23.10;100727.44;5078904;28;45782;-91
2022/07/19 02:49:47;;;;;;;;;8.00;6.00;;;;;31.01;23.50;100736.16;5078071;28;45461;-90
2022/07/19 02:52:13;;;;;;;;;4.75;4.00;;;;;30.94;22.96;100722.75;5078757;28;45531;-89
2022/07/19 02:54:38;;;;;;;;;6.25;5.50;;;;;30.93;23.63;100731.97;5078711;28;45462;-90
2022/07/19 02:57:04;;;;;;;;;6.00;5.00;;;;;30.86;23.25;100723.16;5078900;28;46186;-90
2022/07/19 02:59:29;;;;;;;;;6.00;5.25;;;;;30.85;23.39;100724.22;5081334;28;45680;-90
2022/07/19 03:01:55;;;;;;;;;6.25;5.50;;;;;30.84;23.46;100727.97;5084399;28;45633;-88
2022/07/19 03:04:20;;;;;;;;;5.50;5.25;;;;;30.78;23.60;100715.41;5066647;28;45664;-85
2022/07/19 03:06:46;;;;;;;;;7.25;6.25;;;;;30.79;23.71;100722.47;5084691;28;45738;-89
2022/07/19 03:09:11;;;;;;;;;6.50;6.50;;;;;30.73;23.55;100716.13;5061125;28;48194;-88
2022/07/19 03:11:38;;;;;;;;;7.00;6.00;;;;;30.71;23.08;100720.13;5079556;28;45822;-91
2022/07/19 03:14:03;;;;;;;;;8.00;6.00;;;;;30.67;23.62;100717.06;5078662;28;45629;-90
2022/07/19 03:19:49;;;;;;;;;6.00;6.00;;;;;30.57;23.71;100727.66;5077990;28;45562;-89
2022/07/19 03:22:15;;;;;;;;;5.25;5.25;;;;;30.50;23.74;100726.97;5080009;28;45628;-90
2022/07/19 03:24:40;;;;;;;;;5.25;5.00;;;;;30.44;23.94;100728.72;5083091;28;45959;-88
2022/07/19 03:27:06;;;;;;;;;7.00;6.00;;;;;30.44;23.68;100736.84;5081221;28;46442;-90
2022/07/19 03:29:31;;;;;;;;;6.00;6.00;;;;;30.38;23.90;100720.72;5080438;28;46290;-91
2022/07/19 03:35:22;;;;;;;;;5.75;5.75;;;;;30.31;24.38;100726.25;5078784;28;45545;-89
2022/07/19 03:37:47;;;;;;;;;7.75;6.00;;;;;30.25;24.05;100729.06;5079494;28;46537;-90
2022/07/19 03:40:13;;;;;;;;;7.25;6.50;;;;;30.25;24.08;100737.19;5043838;28;46275;-91
2022/07/19 03:42:38;;;;;;;;;8.00;6.00;;;;;30.21;24.33;100725.19;5059194;28;45542;-89
2022/07/19 03:45:04;;;;;;;;;5.75;5.00;;;;;30.21;24.09;100733.31;5058842;28;45591;-89
2022/07/19 03:47:30;;;;;;;;;6.50;6.50;;;;;30.13;24.27;100722.84;5041821;28;47447;-88
2022/07/19 03:49:57;;;;;;;;;6.00;5.00;;;;;30.12;24.34;100724.75;5057920;28;45633;-91
2022/07/19 03:52:23;;;;;;;;;6.75;5.00;;;;;30.13;23.99;100729.06;5040037;28;45634;-91
2022/07/19 03:54:48;;;;;;;;;6.00;6.00;;;;;30.10;24.03;100729.53;5057993;28;45710;-91
2022/07/19 03:57:13;;;;;;;;;9.25;7.25;;;;;30.02;24.53;100716.38;5058257;28;45625;-91
2022/07/19 03:59:39;;;;;;;;;8.50;6.75;;;;;30.06;24.69;100730.25;5057937;28;45454;-93
2022/07/19 04:05:26;;;;;;;;;1.50;1.00;;;;;30.00;24.45;100722.03;5057514;28;45513;-91
2022/07/19 04:07:51;;;;;;;;;6.00;5.75;;;;;29.96;24.52;100723.53;5057407;28;46554;-91
2022/07/19 04:10:17;;;;;;;;;7.00;7.00;;;;;29.88;24.78;100718.44;5057536;28;45495;-89
2022/07/19 04:12:42;;;;;;;;;6.25;6.25;;;;;29.93;24.87;100723.19;5058505;28;45510;-88
2022/07/19 04:15:08;;;;;;;;;6.00;6.00;;;;;29.91;24.74;100717.16;5063156;28;46009;-84
2022/07/19 04:20:55;;;;;;;;;8.75;7.00;;;;;29.87;24.80;100716.78;5061636;28;45601;-88
2022/07/19 04:23:20;;;;;;;;;7.25;5.50;;;;;29.89;24.90;100730.91;5056868;28;45509;-86
2022/07/19 04:25:46;;;;;;;;;8.50;7.50;;;;;29.84;24.83;100717.28;5055881;28;45502;-85
2022/07/19 04:28:11;;;;;;;;;8.00;7.00;;;;;29.84;24.98;100717.28;5055029;28;45424;-82
2022/07/19 04:30:37;;;;;;;;;6.00;6.00;;;;;29.87;24.89;100719.50;5053910;28;45523;-83
2022/07/19 04:33:02;;;;;;;;;5.75;5.25;;;;;29.87;24.98;100721.38;5055271;28;45704;-88
2022/07/19 04:35:28;;;;;;;;;8.00;6.00;;;;;29.86;25.40;100723.25;5056166;28;45860;-88
2022/07/19 04:37:53;;;;;;;;;8.50;6.50;;;;;29.85;24.92;100718.09;5056414;28;45648;-85
2022/07/19 04:40:18;;;;;;;;;8.00;6.25;;;;;29.77;25.04;100711.16;5073022;28;46206;-86
2022/07/19 04:42:44;;;;;;;;;7.50;6.50;;;;;29.77;25.25;100713.84;5077476;28;45997;-91
2022/07/19 04:45:10;;;;;;;;;7.00;7.00;;;;;29.76;24.94;100714.91;5079626;28;45431;-87
2022/07/19 04:50:57;;;;;;;;;7.25;6.25;;;;;29.74;25.06;100708.09;5081701;28;45912;-89
2022/07/19 04:53:22;;;;;;;;;9.00;8.00;;;;;29.75;25.45;100713.25;5081431;28;45529;-89
2022/07/19 04:55:47;;;;;;;;;8.00;8.00;;;;;29.72;25.53;100713.72;5069250;28;45552;-84
2022/07/19 04:58:13;;;;;;;;;7.50;7.25;;;;;29.77;25.27;100721.13;5074700;28;47211;-85
2022/07/19 05:00:38;;;;;;;;;9.00;7.75;;;;;29.69;25.17;100711.47;5091266;28;47311;-85
2022/07/19 05:03:05;;;;;;;;;8.25;7.00;;;;;29.77;25.20;100715.72;5072404;28;45592;-85
2022/07/19 05:05:30;;;;;;;;;8.25;6.00;;;;;29.73;25.37;100704.56;5089454;28;45423;-86
2022/07/19 05:07:56;;;;;;;;;8.75;8.25;;;;;29.69;25.88;100700.66;5084197;28;46021;-89
2022/07/19 05:10:21;;;;;;;;;7.00;7.00;;;;;29.73;25.79;100704.56;5080477;28;46317;-88
2022/07/19 05:12:46;;;;;;;;;9.50;8.00;;;;;29.76;25.64;100714.06;5079937;28;45596;-88
2022/07/19 05:15:12;;;;;;;;;7.00;6.75;;;;;29.76;25.50;100711.38;5081249;28;45557;-83
2022/07/19 05:20:59;;;;;;;;;9.50;8.50;;;;;29.74;25.62;100708.91;5074867;28;45996;-85
2022/07/19 05:23:24;;;;;;;;;7.00;7.00;;;;;29.73;25.85;100701.88;5075410;28;45623;-85
2022/07/19 05:25:50;;;;;;;;;8.75;8.00;;;;;29.78;25.90;100714.66;5057640;28;45986;-82
2022/07/19 05:28:15;;;;;;;;;9.75;9.00;;;;;29.77;25.55;100704.91;5073191;28;47473;-90
2022/07/19 05:30:42;;;;;;;;;9.00;8.00;;;;;29.78;25.85;100711.97;5074617;28;45757;-89
2022/07/19 05:36:30;;;;;;;;;9.75;9.25;;;;;29.79;25.73;100708.22;5071753;28;45593;-77
2022/07/19 05:38:55;;;;;;;;;9.00;7.25;;;;;29.79;26.24;100706.34;5071882;28;45568;-77
2022/07/19 05:41:22;;;;;;;;;9.00;7.50;;;;;29.81;26.14;100708.78;5072055;28;45777;-77
2022/07/19 05:43:48;;;;;;;;;12.25;9.00;;;;;29.81;26.22;100711.50;5074870;28;45623;-77
2022/07/19 05:46:13;;;;;;;;;8.00;8.00;;;;;29.80;26.29;100707.16;5075712;28;45588;-74
2022/07/19 05:58:57;;;;;;;;;9.50;8.00;;;;;29.81;27.02;100695.28;5033288;28;47598;-76
2022/07/19 06:01:24;;;;;;;;;8.75;8.00;;;;;29.82;26.72;100691.53;5038176;28;46944;-77
2022/07/19 06:03:52;;;;;;;;;9.50;9.00;;;;;29.81;26.84;100689.88;5030491;28;46521;-76
2022/07/19 06:06:19;;;;;;;;;12.00;10.00;;;;;29.83;26.70;100696.72;5047221;28;45644;-77
2022/07/19 06:08:45;;;;;;;;;14.50;12.00;;;;;29.84;26.63;100692.13;5050457;28;45710;-77
2022/07/19 06:11:10;;;;;;;;;13.25;12.25;;;;;29.84;26.63;100689.44;5041750;28;47161;-77
2022/07/19 06:13:36;;;;;;;;;13.75;12.75;;;;;29.86;27.07;100696.22;5039385;28;45801;-76
2022/07/19 06:16:03;;;;;;;;;11.00;9.00;;;;;29.85;27.11;100688.38;5052686;28;45785;-77
2022/07/19 06:18:33;;;;;;;;;11.25;11.25;;;;;29.86;26.88;100687.28;5034482;28;45653;-76
2022/07/19 06:21:08;;;;;;;;;12.00;11.00;;;;;29.87;26.39;100683.53;5030858;28;48347;-77
2022/07/19 06:23:34;;;;;;;;;13.50;11.00;;;;;29.84;27.04;100678.63;5058908;28;45667;-78
2022/07/19 06:26:00;;;;;;;;;11.75;9.75;;;;;29.87;27.07;100675.44;5036316;28;46204;-77
2022/07/19 06:28:26;;;;;;;;;11.00;10.00;;;;;29.89;27.83;100682.25;5050848;28;45926;-76
2022/07/19 06:30:52;;;;;;;;;12.00;11.25;;;;;29.85;27.39;100670.25;5027630;28;47718;-77
2022/07/19 06:33:18;;;;;;;;;9.00;8.50;;;;;29.88;28.43;100663.56;5049436;28;46642;-77
2022/07/19 06:35:44;;;;;;;;;9.50;9.50;;;;;29.90;28.66;100666.91;5033870;28;47112;-77
2022/07/19 06:38:09;;;;;;;;;10.50;10.25;;;;;29.88;28.80;100656.28;5036549;28;47129;-78
2022/07/19 06:40:35;;;;;;;;;9.75;8.75;;;;;29.88;28.91;100660.88;5031244;28;48708;-75
2022/07/19 06:43:00;;;;;;;;;11.75;9.75;;;;;29.83;29.37;100652.66;5051940;28;45714;-76
2022/07/19 06:45:25;;;;;;;;;10.75;10.00;;;;;29.83;29.01;100658.06;5065002;28;46211;-75
2022/07/19 06:47:51;;;;;;;;;10.00;10.00;;;;;29.82;28.85;100656.41;5018731;28;45820;-77
2022/07/19 06:50:17;;;;;;;;;10.00;9.75;;;;;29.80;28.57;100651.22;5042412;28;45655;-75
2022/07/19 06:52:44;;;;;;;;;10.50;9.00;;;;;29.79;29.45;100654.19;5045923;28;46300;-77
2022/07/19 06:55:10;;;;;;;;;10.50;9.25;;;;;29.77;28.86;100653.59;5028826;28;46158;-77
2022/07/19 06:57:35;;;;;;;;;11.25;11.00;;;;;29.81;29.09;100668.25;5040708;28;45980;-76
2022/07/19 07:00:01;;;;;;;;;11.25;11.00;;;;;29.81;30.40;100663.69;5056109;28;46010;-76
2022/07/19 07:02:26;;;;;;;;;8.75;8.50;;;;;29.82;30.62;100659.94;5051011;28;45762;-79
2022/07/19 07:04:51;;;;;;;;;12.25;11.50;;;;;29.81;30.74;100658.28;5029735;28;45851;-78
2022/07/19 07:07:17;;;;;;;;;12.00;11.75;;;;;29.84;30.45;100665.94;5042536;28;45687;-77
2022/07/19 07:09:42;;;;;;;;;12.75;12.00;;;;;29.87;30.51;100664.63;5062157;28;46217;-78
2022/07/19 07:12:08;;;;;;;;;15.50;13.25;;;;;29.87;30.61;100659.22;5045298;28;46055;-78
2022/07/19 07:14:34;;;;;;;;;12.00;12.00;;;;;29.89;30.61;100649.84;5031396;28;47237;-78
2022/07/19 07:17:00;;;;;;;;;11.50;11.50;;;;;29.89;29.93;100643.59;5050861;28;45821;-83
2022/07/19 07:19:25;;;;;;;;;10.00;9.50;;;;;29.94;28.97;100651.88;5051043;28;45725;-86
2022/07/19 07:21:51;;;;;;;;;11.00;10.50;;;;;30.00;28.90;100659.03;5053124;28;46330;-83
2022/07/19 07:24:16;;;;;;;;;12.50;10.75;;;;;29.98;29.00;100643.03;5053726;28;45930;-84
2022/07/19 07:26:42;;;;;;;;;9.50;9.25;;;;;30.03;28.68;100640.47;5046154;28;45621;-83
2022/07/19 07:29:07;;;;;;;;;11.50;11.00;;;;;30.07;28.48;100640.00;5048672;28;46469;-84
2022/07/19 07:31:32;;;;;;;;;12.00;11.75;;;;;30.09;29.16;100633.28;5052909;28;46527;-83
2022/07/19 07:33:58;;;;;;;;;11.75;11.00;;;;;30.08;28.48;100626.22;5044820;28;46166;-83
2022/07/19 07:36:23;;;;;;;;;9.50;9.50;;;;;30.20;29.37;100643.28;5032170;28;45670;-83
2022/07/19 07:38:49;;;;;;;;;12.00;10.25;;;;;30.22;29.05;100641.16;5064859;28;46505;-84
2022/07/19 07:41:14;;;;;;;;;11.25;10.00;;;;;30.20;28.44;100631.63;5057259;28;46295;-86
2022/07/19 07:43:40;;;;;;;;;11.00;9.00;;;;;30.27;28.59;100629.63;5041559;28;45923;-86
2022/07/19 07:46:05;;;;;;;;;10.75;10.25;;;;;30.32;28.89;100622.44;5050958;28;45802;-83
2022/07/19 07:48:31;;;;;;;;;11.00;9.75;;;;;30.34;28.85;100620.31;5050961;28;47122;-83
2022/07/19 07:50:56;;;;;;;;;12.25;11.00;;;;;30.35;28.67;100607.63;5028308;28;47449;-84
2022/07/19 07:53:22;;;;;;;;;11.25;11.25;;;;;30.48;28.34;100615.50;5032983;28;45687;-84
2022/07/19 07:55:48;;;;;;;;;13.25;11.75;;;;;30.54;28.09;100613.72;5065561;28;45731;-83
2022/07/19 07:58:13;;;;;;;;;13.00;12.00;;;;;30.53;28.35;100607.50;5053914;28;46476;-82
2022/07/19 08:00:40;;;;;;;;;10.50;9.50;;;;;30.55;27.88;100594.56;5053394;28;46523;-82
2022/07/19 08:03:06;;;;;;;;;14.25;14.00;;;;;30.66;27.92;100599.06;5054202;28;45771;-83
2022/07/19 08:05:32;;;;;;;;;12.75;12.00;;;;;30.76;27.40;100612.00;5042390;28;45719;-83
2022/07/19 08:07:58;;;;;;;;;10.75;10.50;;;;;30.79;28.26;100604.22;5053479;28;46835;-82
2022/07/19 08:10:26;;;;;;;;;13.00;12.00;;;;;30.81;27.82;100596.69;5068050;28;45688;-82
2022/07/19 08:12:52;;;;;;;;;13.50;12.00;;;;;30.94;27.17;100602.84;5054319;28;45638;-82
2022/07/19 08:15:18;;;;;;;;;13.50;12.25;;;;;30.92;27.35;100588.75;5053051;28;45778;-82
2022/07/19 08:17:43;;;;;;;;;11.25;11.00;;;;;31.00;27.46;100586.47;5062150;28;45761;-83
2022/07/19 08:20:09;;;;;;;;;13.25;11.50;;;;;31.05;27.34;100588.47;5051693;28;45866;-86
2022/07/19 08:22:35;;;;;;;;;15.25;12.75;;;;;31.10;27.71;100589.38;5054248;28;45755;-86
2022/07/19 08:25:00;;;;;;;;;11.50;11.50;;;;;31.12;27.27;100581.00;5054046;28;45831;-86
2022/07/19 08:27:26;;;;;;;;;13.00;11.75;;;;;31.21;27.18;100582.25;5051137;28;45646;-84
2022/07/19 08:29:51;;;;;;;;;11.25;11.25;;;;;31.29;26.76;100589.97;5054815;28;45576;-87
2022/07/19 08:32:16;;;;;;;;;14.00;13.00;;;;;31.35;27.06;100590.88;5038506;28;45734;-88
2022/07/19 08:34:42;;;;;;;;;13.50;12.75;;;;;31.37;27.77;100576.00;5054044;28;45785;-89
2022/07/19 08:37:07;;;;;;;;;11.75;11.75;;;;;31.33;28.03;100569.47;5046609;28;48937;-89
2022/07/19 08:39:33;;;;;;;;;12.25;10.25;;;;;31.46;26.86;100571.84;5056707;28;45638;-88
2022/07/19 08:41:58;;;;;;;;;14.50;13.00;;;;;31.51;26.29;100571.94;5056247;28;45934;-90
2022/07/19 08:44:28;;;;;;;;;10.50;10.00;;;;;31.53;26.76;100568.94;5056474;28;45922;-85
2022/07/19 08:46:54;;;;;;;;;11.75;11.25;;;;;31.62;25.98;100564.81;5055957;28;45640;-84
2022/07/19 08:49:20;;;;;;;;;13.00;12.25;;;;;31.64;26.50;100560.75;5035709;28;48323;-79
2022/07/19 08:51:48;;;;;;;;;13.00;11.25;;;;;31.73;26.14;100577.44;5047797;28;45667;-80
2022/07/19 08:54:15;;;;;;;;;12.00;10.75;;;;;31.81;25.62;100565.34;5040080;28;45870;-80
2022/07/19 08:59:25;;;;;;;;;14.00;11.50;;;;;31.91;25.16;100554.63;5035873;28;46161;-78
2022/07/19 09:01:51;;;;;;;;;10.25;9.75;;;;;32.01;25.63;100565.63;5044634;28;45917;-79
2022/07/19 09:04:17;;;;;;;;;9.00;9.00;;;;;32.05;25.01;100559.44;5040692;28;45762;-78
2022/07/19 09:06:46;;;;;;;;;12.25;10.75;;;;;32.12;25.65;100551.13;5047355;28;45797;-81
2022/07/19 09:09:13;;;;;;;;;11.00;10.25;;;;;32.20;25.13;100547.19;5043016;28;45997;-80
2022/07/19 09:11:50;;;;;;;;;11.00;9.50;;;;;32.31;24.72;100551.66;5045342;28;45692;-80
2022/07/19 09:14:28;;;;;;;;;9.00;9.00;;;;;32.39;24.84;100551.22;5054838;28;45771;-80
2022/07/19 09:17:09;;;;;;;;;10.00;9.75;;;;;32.45;24.49;100539.31;5057797;28;45672;-80
2022/07/19 09:19:46;;;;;;;;;10.00;9.75;;;;;32.52;24.01;100548.09;5024434;28;46203;-80
2022/07/19 09:22:16;;;;;;;;;11.00;9.50;;;;;32.60;24.05;100552.25;5068127;28;45749;-80
2022/07/19 09:24:45;;;;;;;;;10.50;9.50;;;;;32.64;24.07;100547.94;5046281;28;46006;-82
2022/07/19 09:27:13;;;;;;;;;10.25;9.75;;;;;32.73;24.38;100541.00;5043621;28;47004;-82
2022/07/19 09:29:42;;;;;;;;;11.25;9.00;;;;;32.78;24.71;100538.34;5044917;28;46734;-81
2022/07/19 09:32:10;;;;;;;;;9.25;9.00;;;;;32.83;24.05;100538.38;5034833;28;45727;-81
2022/07/19 09:34:42;;;;;;;;;7.00;6.00;;;;;32.88;24.03;100535.72;5049421;28;45763;-79
2022/07/19 09:37:15;;;;;;;;;9.75;9.50;;;;;32.88;23.94;100522.16;5038079;28;46455;-81
2022/07/19 09:39:44;;;;;;;;;10.75;9.00;;;;;32.99;23.86;100528.47;5054438;28;45620;-80
2022/07/19 09:42:12;;;;;;;;;9.00;8.75;;;;;33.05;23.73;100522.84;5040507;28;46463;-82
2022/07/19 09:44:37;;;;;;;;;9.50;8.75;;;;;33.10;23.95;100519.34;5047310;28;45656;-81
2022/07/19 09:47:03;;;;;;;;;10.00;9.75;;;;;33.16;24.11;100521.84;5054746;28;45737;-80
2022/07/19 09:49:29;;;;;;;;;6.50;5.50;;;;;33.24;22.70;100520.59;5054064;28;46337;-82
2022/07/19 09:51:55;;;;;;;;;11.25;10.25;;;;;33.30;23.02;100511.41;5052415;28;45627;-81
2022/07/19 09:54:31;;;;;;;;;9.25;8.75;;;;;33.28;22.95;100495.34;5053173;28;45644;-81
2022/07/19 09:57:00;;;;;;;;;9.00;8.75;;;;;33.41;22.55;100498.72;5041830;28;45727;-81
2022/07/19 09:59:26;;;;;;;;;10.00;8.25;;;;;33.48;21.67;100502.81;5053534;28;47187;-81
2022/07/19 10:01:55;;;;;;;;;10.25;7.25;;;;;33.59;21.55;100499.06;5053725;28;45657;-82
2022/07/19 10:04:24;;;;;;;;;8.75;8.50;;;;;33.61;21.55;100499.63;5037222;28;45786;-80
2022/07/19 10:06:51;;;;;;;;;9.00;7.75;;;;;33.74;21.25;100501.06;5053861;28;46597;-79
2022/07/19 10:09:19;;;;;;;;;10.00;8.75;;;;;33.81;21.56;100481.81;5052719;28;46008;-78
2022/07/19 10:11:45;;;;;;;;;8.00;8.00;;;;;33.90;21.18;100489.19;5050236;28;45726;-79
2022/07/19 10:14:14;;;;;;;;;9.25;9.00;;;;;33.98;20.78;100479.72;5053073;28;45650;-78
2022/07/19 10:16:46;;;;;;;;;11.25;9.75;;;;;34.08;21.55;100482.47;5040917;28;45795;-77
2022/07/19 10:19:28;;;;;;;;;9.75;7.50;;;;;34.16;20.67;100475.69;5048235;28;46246;-79
2022/07/19 10:21:54;;;;;;;;;8.25;8.25;;;;;34.21;20.31;100468.41;5036580;28;45707;-78
2022/07/19 10:24:57;;;;;;;;;9.00;8.00;;;;;34.35;20.53;100463.25;5051655;28;45582;-78
2022/07/19 10:27:25;;;;;;;;;11.00;8.50;;;;;34.43;20.15;100458.09;5047567;28;45850;-80
2022/07/19 10:29:52;;;;;;;;;8.25;8.00;;;;;34.46;20.15;100451.28;5043657;28;45681;-79
2022/07/19 10:32:29;;;;;;;;;9.00;9.00;;;;;34.58;20.28;100448.31;5034898;28;45621;-80
2022/07/19 10:35:34;;;;;;;;;10.00;9.75;;;;;34.67;19.95;100452.13;5034048;28;46168;-80
2022/07/19 10:38:02;;;;;;;;;7.75;7.75;;;;;34.76;19.67;100440.47;5046066;28;46723;-79
2022/07/19 10:40:51;;;;;;;;;8.00;8.00;;;;;34.80;19.55;100433.38;5051270;28;45975;-79
2022/07/19 10:43:21;;;;;;;;;7.75;7.25;;;;;34.90;19.40;100438.00;5052477;28;45645;-80
2022/07/19 10:45:55;;;;;;;;;9.25;8.25;;;;;34.99;18.96;100427.34;5045588;28;45786;-79
2022/07/19 10:48:35;;;;;;;;;8.75;7.50;;;;;35.06;19.10;100430.63;5029682;28;48409;-80
2022/07/19 10:51:01;;;;;;;;;8.00;7.75;;;;;35.14;18.91;100420.00;5047751;28;45682;-79
2022/07/19 10:53:46;;;;;;;;;10.25;9.00;;;;;35.24;19.38;100427.34;5043791;28;45786;-79
2022/07/19 10:56:17;;;;;;;;;9.25;7.75;;;;;35.30;18.69;100426.25;5024234;28;45878;-80
2022/07/19 10:58:47;;;;;;;;;9.75;9.25;;;;;35.34;18.57;100416.41;5028348;28;48636;-80
2022/07/19 11:01:18;;;;;;;;;10.25;8.50;;;;;35.44;17.70;100415.56;5046943;28;46380;-79
2022/07/19 11:03:45;;;;;;;;;9.75;7.50;;;;;35.48;18.17;100403.81;5052596;28;45701;-79
2022/07/19 11:06:23;;;;;;;;;8.00;7.50;;;;;35.60;17.57;100412.50;5054717;28;45640;-79
2022/07/19 11:08:52;;;;;;;;;10.00;10.00;;;;;35.62;16.94;100404.88;5052565;28;45573;-80
2022/07/19 11:11:18;;;;;;;;;7.00;7.00;;;;;35.75;16.84;100406.19;5052188;28;46177;-80
2022/07/19 11:13:49;;;;;;;;;8.25;7.50;;;;;35.84;17.09;100407.25;5045704;28;45739;-80
2022/07/19 11:16:15;;;;;;;;;11.00;10.25;;;;;35.86;17.51;100391.41;5043745;28;45941;-81
2022/07/19 11:18:43;;;;;;;;;9.50;8.00;;;;;35.95;17.01;100394.38;5050481;28;45734;-80
2022/07/19 11:21:12;;;;;;;;;9.00;8.25;;;;;35.95;17.17;100392.47;5052312;28;46013;-81
2022/07/19 11:23:39;;;;;;;;;9.75;9.00;;;;;36.04;17.33;100381.75;5051205;28;45534;-81
2022/07/19 11:26:13;;;;;;;;;9.00;8.50;;;;;36.14;16.51;100384.41;5031836;28;46295;-80
2022/07/19 11:28:41;;;;;;;;;10.00;9.75;;;;;36.18;16.57;100388.22;5047798;28;45703;-83
2022/07/19 11:31:18;;;;;;;;;14.50;12.50;;;;;36.28;16.66;100385.41;5051766;28;45763;-83
2022/07/19 11:33:45;;;;;;;;;10.00;9.25;;;;;36.29;17.25;100375.31;5037291;28;45699;-82
2022/07/19 11:36:12;;;;;;;;;10.50;9.00;;;;;36.38;16.45;100366.25;5042491;28;45712;-81
2022/07/19 11:38:45;;;;;;;;;9.00;9.00;;;;;36.45;16.14;100374.91;5034295;28;46511;-81
2022/07/19 11:41:17;;;;;;;;;9.75;9.75;;;;;36.52;16.84;100372.69;5029462;28;48378;-81
2022/07/19 11:43:43;;;;;;;;;8.75;8.75;;;;;36.60;16.58;100372.03;5048155;28;45710;-81
2022/07/19 11:46:08;;;;;;;;;9.50;8.75;;;;;36.66;16.58;100366.56;5041388;28;45676;-80
2022/07/19 11:48:34;;;;;;;;;13.00;11.00;;;;;36.72;16.23;100373.63;5043970;28;45675;-80
2022/07/19 11:51:02;;;;;;;;;8.25;8.00;;;;;36.79;16.39;100365.91;5049756;28;46087;-81
2022/07/19 11:53:28;;;;;;;;;9.50;9.00;;;;;36.82;16.28;100359.84;5049107;28;45510;-81
2022/07/19 11:55:54;;;;;;;;;9.50;8.25;;;;;36.89;15.92;100363.88;5051859;28;45732;-80
2022/07/19 11:58:20;;;;;;;;;8.50;8.50;;;;;36.92;15.90;100352.41;5028300;28;48256;-80
2022/07/19 12:00:45;;;;;;;;;10.00;9.00;;;;;36.98;16.03;100345.75;5037308;28;46454;-81
2022/07/19 12:03:15;;;;;;;;;8.50;7.75;;;;;36.99;16.20;100346.56;5050940;28;45943;-81
2022/07/19 12:05:56;;;;;;;;;8.00;6.25;;;;;37.08;16.04;100344.03;5040570;28;45864;-81
2022/07/19 12:08:21;;;;;;;;;8.00;8.00;;;;;37.12;15.58;100345.09;5017721;28;45752;-80
2022/07/19 12:10:53;;;;;;;;;9.00;9.00;;;;;37.21;15.69;100355.09;5032853;28;46308;-79
2022/07/19 12:13:32;;;;;;;;;9.00;8.00;;;;;37.22;15.27;100334.84;5061078;28;45661;-81
2022/07/19 12:16:10;;;;;;;;;5.00;5.00;;;;;37.30;15.63;100338.88;5055680;28;45789;-81
2022/07/19 12:18:44;;;;;;;;;11.00;9.50;;;;;37.38;15.73;100343.66;5038390;28;45760;-81
2022/07/19 12:21:38;;;;;;;;;9.00;9.00;;;;;37.44;15.47;100341.69;5040416;28;45859;-84
2022/07/19 12:24:17;;;;;;;;;10.00;9.00;;;;;37.50;15.62;100329.56;5051275;28;45791;-83